createdAt,value
2023-04-09T00:00:06.635Z,4.83
2023-04-09T00:02:42.193Z,5.13
2023-04-09T00:05:10.765Z,4.90
2023-04-09T00:07:39.181Z,5.07
2023-04-09T00:10:09.057Z,5.17
2023-04-09T00:12:37.857Z,4.70
2023-04-09T00:15:09.656Z,5.37
2023-04-09T00:17:41.365Z,5.47
2023-04-09T00:20:10.865Z,5.17
2023-04-09T00:22:39.197Z,4.60
2023-04-09T00:25:09.157Z,5.50
2023-04-09T00:27:37.506Z,5.80
2023-04-09T00:30:07.427Z,4.73
2023-04-09T00:32:35.790Z,5.10
2023-04-09T00:35:06.465Z,5.70
2023-04-09T00:37:34.869Z,5.60
2023-04-09T00:40:03.279Z,5.90
2023-04-09T00:42:34.030Z,5.17
2023-04-09T00:45:02.770Z,5.57
2023-04-09T00:47:32.091Z,4.90
2023-04-09T00:50:02.119Z,5.23
2023-04-09T00:52:32.010Z,5.60
2023-04-09T00:55:02.066Z,5.70
2023-04-09T00:57:30.545Z,5.27
2023-04-09T00:59:59.024Z,5.00
2023-04-09T01:02:28.242Z,5.03
2023-04-09T01:04:56.792Z,5.40
2023-04-09T01:07:45.637Z,5.40
2023-04-09T01:10:22.527Z,5.27
2023-04-09T01:13:04.622Z,5.43
2023-04-09T01:15:38.988Z,6.10
2023-04-09T01:18:17.146Z,5.67
2023-04-09T01:20:55.208Z,5.07
2023-04-09T01:23:38.694Z,5.33
2023-04-09T01:26:22.804Z,5.77
2023-04-09T01:28:58.770Z,6.10
2023-04-09T01:31:32.405Z,5.77
2023-04-09T01:34:02.359Z,5.27
2023-04-09T01:36:33.077Z,5.93
2023-04-09T01:39:03.334Z,5.57
2023-04-09T01:41:34.494Z,5.73
2023-04-09T01:44:07.122Z,6.17
2023-04-09T01:46:38.030Z,5.77
2023-04-09T01:49:07.180Z,6.13
2023-04-09T01:51:36.082Z,6.60
2023-04-09T01:54:05.165Z,6.10
2023-04-09T01:56:42.608Z,6.13
2023-04-09T01:59:12.978Z,6.70
2023-04-09T02:01:47.312Z,5.33
2023-04-09T02:04:24.313Z,5.77
2023-04-09T02:07:00.578Z,5.77
2023-04-09T02:09:32.712Z,5.67
2023-04-09T02:12:05.317Z,4.93
2023-04-09T02:14:37.143Z,5.40
2023-04-09T02:17:06.605Z,5.37
2023-04-09T02:19:42.161Z,5.50
2023-04-09T02:22:11.992Z,4.73
2023-04-09T02:24:41.567Z,5.47
2023-04-09T02:27:10.373Z,5.50
2023-04-09T02:29:42.159Z,6.03
2023-04-09T02:32:10.645Z,5.87
2023-04-09T02:34:39.115Z,6.20
2023-04-09T02:37:07.516Z,6.10
2023-04-09T02:39:35.949Z,6.20
2023-04-09T02:42:04.494Z,6.30
2023-04-09T02:44:32.995Z,6.17
2023-04-09T02:47:03.275Z,6.67
2023-04-09T02:49:32.071Z,6.13
2023-04-09T02:52:00.360Z,6.10
2023-04-09T02:54:28.740Z,6.53
2023-04-09T02:56:57.471Z,6.00
2023-04-09T02:59:25.863Z,6.20
2023-04-09T03:01:54.693Z,6.10
2023-04-09T03:04:24.554Z,6.43
2023-04-09T03:06:53.010Z,5.93
2023-04-09T03:09:21.351Z,6.57
2023-04-09T03:11:49.901Z,6.90
2023-04-09T03:14:18.232Z,7.80
2023-04-09T03:16:46.910Z,8.27
2023-04-09T03:19:15.368Z,7.80
2023-04-09T03:21:46.389Z,8.60
2023-04-09T03:24:15.015Z,8.17
2023-04-09T03:26:44.837Z,7.70
2023-04-09T03:29:15.454Z,7.80
2023-04-09T03:31:44.010Z,7.93
2023-04-09T03:34:13.128Z,7.47
2023-04-09T03:36:45.759Z,7.37
2023-04-09T03:39:30.918Z,6.63
2023-04-09T03:41:59.698Z,6.13
2023-04-09T03:44:32.189Z,7.33
2023-04-09T03:47:06.519Z,6.60
2023-04-09T03:49:36.884Z,6.50
2023-04-09T03:52:17.178Z,6.77
2023-04-09T03:54:49.314Z,6.27
2023-04-09T03:57:21.925Z,6.83
2023-04-09T03:59:53.590Z,6.23
2023-04-09T04:02:27.084Z,5.87
2023-04-09T04:05:01.602Z,6.77
2023-04-09T04:07:37.053Z,6.40
2023-04-09T04:10:13.652Z,6.20
2023-04-09T04:12:45.949Z,5.30
2023-04-09T04:15:27.562Z,6.30
2023-04-09T04:17:58.040Z,6.30
2023-04-09T04:20:38.919Z,6.63
2023-04-09T04:23:15.401Z,6.07
2023-04-09T04:25:59.255Z,7.07
2023-04-09T04:28:32.734Z,6.40
2023-04-09T04:31:01.660Z,6.60
2023-04-09T04:33:32.460Z,5.97
2023-04-09T04:36:09.280Z,6.43
2023-04-09T04:38:43.774Z,6.07
2023-04-09T04:41:19.148Z,6.67
2023-04-09T04:43:54.952Z,6.03
2023-04-09T04:46:25.637Z,6.80
2023-04-09T04:48:54.275Z,6.63
2023-04-09T04:51:24.242Z,7.20
2023-04-09T04:54:05.248Z,6.30
2023-04-09T04:56:33.973Z,6.97
2023-04-09T04:59:17.689Z,6.67
2023-04-09T05:02:06.358Z,6.70
2023-04-09T05:04:42.162Z,6.43
2023-04-09T05:07:13.992Z,6.90
2023-04-09T05:09:51.488Z,6.73
2023-04-09T05:12:20.536Z,8.00
2023-04-09T05:14:52.649Z,7.37
2023-04-09T05:17:21.103Z,7.43
2023-04-09T05:19:53.097Z,7.47
2023-04-09T05:22:27.227Z,7.57
2023-04-09T05:24:56.985Z,6.77
2023-04-09T05:27:27.684Z,6.87
2023-04-09T05:30:01.568Z,7.37
2023-04-09T05:32:30.118Z,7.13
2023-04-09T05:34:59.227Z,7.43
2023-04-09T05:37:29.047Z,6.37
2023-04-09T05:39:59.277Z,6.63
2023-04-09T05:42:27.707Z,6.67
2023-04-09T05:45:06.961Z,6.60
2023-04-09T05:47:35.382Z,7.67
2023-04-09T05:50:13.225Z,6.87
2023-04-09T05:52:42.750Z,7.23
2023-04-09T05:55:14.875Z,7.20
2023-04-09T05:57:54.708Z,7.53
2023-04-09T06:00:23.384Z,9.07
2023-04-09T06:02:52.806Z,8.07
2023-04-09T06:05:21.287Z,9.93
2023-04-09T06:07:49.871Z,22.30
2023-04-09T06:10:19.743Z,29.93
2023-04-09T06:12:49.915Z,17.90
2023-04-09T06:15:18.716Z,20.93
2023-04-09T06:17:47.250Z,18.77
2023-04-09T06:20:16.086Z,24.70
2023-04-09T06:22:44.400Z,16.47
2023-04-09T06:25:12.732Z,14.80
2023-04-09T06:27:42.534Z,13.90
2023-04-09T06:30:12.609Z,12.07
2023-04-09T06:32:53.103Z,10.23
2023-04-09T06:35:22.722Z,10.50
2023-04-09T06:37:51.488Z,10.30
2023-04-09T06:40:22.904Z,9.90
2023-04-09T06:42:53.005Z,10.30
2023-04-09T06:45:31.237Z,10.23
2023-04-09T06:47:59.932Z,9.00
2023-04-09T06:50:28.442Z,10.03
2023-04-09T06:52:58.191Z,9.57
2023-04-09T06:55:26.897Z,9.40
2023-04-09T06:57:56.658Z,9.60
2023-04-09T07:00:24.993Z,9.47
2023-04-09T07:02:54.752Z,9.73
2023-04-09T07:05:24.048Z,10.67
2023-04-09T07:07:52.400Z,10.20
2023-04-09T07:10:20.788Z,9.27
2023-04-09T07:12:49.277Z,10.10
2023-04-09T07:15:19.001Z,9.97
2023-04-09T07:17:47.377Z,10.47
2023-04-09T07:20:15.698Z,10.53
2023-04-09T07:22:44.043Z,9.87
2023-04-09T07:25:12.375Z,10.33
2023-04-09T07:27:40.801Z,11.17
2023-04-09T07:30:10.786Z,10.63
2023-04-09T07:32:40.627Z,12.23
2023-04-09T07:35:11.287Z,10.47
2023-04-09T07:37:39.809Z,10.40
2023-04-09T07:40:09.920Z,11.07
2023-04-09T07:42:39.348Z,10.50
2023-04-09T07:45:09.283Z,11.73
2023-04-09T07:47:37.750Z,11.30
2023-04-09T07:50:09.743Z,11.93
2023-04-09T07:52:38.061Z,10.77
2023-04-09T07:55:07.660Z,10.60
2023-04-09T07:57:36.841Z,11.57
2023-04-09T08:00:08.183Z,11.53
2023-04-09T08:02:42.587Z,11.50
2023-04-09T08:05:12.868Z,11.00
2023-04-09T08:07:41.274Z,10.70
2023-04-09T08:10:15.107Z,11.60
2023-04-09T08:12:43.840Z,10.60
2023-04-09T08:15:12.685Z,10.87
2023-04-09T08:17:41.093Z,10.27
2023-04-09T08:20:12.796Z,10.03
2023-04-09T08:22:42.228Z,9.80
2023-04-09T08:25:10.722Z,9.73
2023-04-09T08:27:39.851Z,9.70
2023-04-09T08:30:10.206Z,7.97
2023-04-09T08:32:38.572Z,7.57
2023-04-09T08:35:09.141Z,6.60
2023-04-09T08:37:39.660Z,6.07
2023-04-09T08:40:10.714Z,5.10
2023-04-09T08:42:45.400Z,6.20
2023-04-09T08:45:14.606Z,5.70
2023-04-09T08:47:44.775Z,6.23
2023-04-09T08:50:13.208Z,6.37
2023-04-09T08:52:44.193Z,6.10
2023-04-09T08:55:13.581Z,5.30
2023-04-09T08:57:42.492Z,4.67
2023-04-09T09:00:12.828Z,5.27
2023-04-09T09:03:05.362Z,5.63
2023-04-09T09:05:38.618Z,4.83
2023-04-09T09:08:09.813Z,5.00
2023-04-09T09:10:43.382Z,5.20
2023-04-09T09:13:20.262Z,6.67
2023-04-09T09:15:50.654Z,5.27
2023-04-09T09:18:19.810Z,5.33
2023-04-09T09:20:48.524Z,4.90
2023-04-09T09:23:36.569Z,3.87
2023-04-09T09:26:14.291Z,4.30
2023-04-09T09:28:43.360Z,3.77
2023-04-09T09:31:13.274Z,4.60
2023-04-09T09:33:42.136Z,4.03
2023-04-09T09:36:11.026Z,3.83
2023-04-09T09:38:58.358Z,4.30
2023-04-09T09:41:27.348Z,4.47
2023-04-09T09:43:55.768Z,4.53
2023-04-09T09:46:26.554Z,4.43
2023-04-09T09:48:55.607Z,4.00
2023-04-09T09:51:28.888Z,4.47
2023-04-09T09:53:59.702Z,4.93
2023-04-09T09:56:33.493Z,4.23
2023-04-09T09:59:14.566Z,4.37
2023-04-09T10:01:43.508Z,4.90
2023-04-09T10:04:16.274Z,4.00
2023-04-09T10:06:46.253Z,3.87
2023-04-09T10:09:16.650Z,4.30
2023-04-09T10:11:48.158Z,4.30
2023-04-09T10:14:19.178Z,5.00
2023-04-09T10:16:48.542Z,4.60
2023-04-09T10:19:17.188Z,4.10
2023-04-09T10:21:54.822Z,3.93
2023-04-09T10:24:25.117Z,3.90
2023-04-09T10:26:56.406Z,3.80
2023-04-09T10:29:30.420Z,3.90
2023-04-09T10:32:06.912Z,4.07
2023-04-09T10:34:39.810Z,3.80
2023-04-09T10:37:10.972Z,4.23
2023-04-09T10:39:47.398Z,4.10
2023-04-09T10:42:20.567Z,4.20
2023-04-09T10:45:07.927Z,4.30
2023-04-09T10:47:38.512Z,4.23
2023-04-09T10:50:21.070Z,3.97
2023-04-09T10:52:54.576Z,3.83
2023-04-09T10:55:41.074Z,3.90
2023-04-09T10:58:18.450Z,3.83
2023-04-09T11:00:52.060Z,3.50
2023-04-09T11:03:31.583Z,3.57
2023-04-09T11:06:06.096Z,4.20
2023-04-09T11:08:35.250Z,3.83
2023-04-09T11:11:11.511Z,3.80
2023-04-09T11:13:49.182Z,3.80
2023-04-09T11:16:23.258Z,3.97
2023-04-09T11:18:57.580Z,3.83
2023-04-09T11:21:29.675Z,3.17
2023-04-09T11:24:02.066Z,3.83
2023-04-09T11:26:38.587Z,3.13
2023-04-09T11:29:08.266Z,3.20
2023-04-09T11:31:44.294Z,4.13
2023-04-09T11:34:13.349Z,4.43
2023-04-09T11:36:42.379Z,4.10
2023-04-09T11:39:11.114Z,3.93
2023-04-09T11:41:42.370Z,3.87
2023-04-09T11:44:11.019Z,4.00
2023-04-09T11:46:40.815Z,3.17
2023-04-09T11:49:26.219Z,3.30
2023-04-09T11:52:02.383Z,3.63
2023-04-09T11:54:39.654Z,3.47
2023-04-09T11:57:10.506Z,3.70
2023-04-09T11:59:41.155Z,3.50
2023-04-09T12:02:16.450Z,3.20
2023-04-09T12:05:01.993Z,3.07
2023-04-09T12:07:34.946Z,3.43
2023-04-09T12:10:07.189Z,3.57
2023-04-09T12:12:44.864Z,3.00
2023-04-09T12:15:21.816Z,3.10
2023-04-09T12:17:51.956Z,3.00
2023-04-09T12:20:35.737Z,2.87
2023-04-09T12:23:06.899Z,3.37
2023-04-09T12:25:38.474Z,3.67
2023-04-09T12:28:10.145Z,3.30
2023-04-09T12:30:38.511Z,2.60
2023-04-09T12:33:10.245Z,2.40
2023-04-09T12:35:39.585Z,2.77
2023-04-09T12:38:08.208Z,2.70
2023-04-09T12:40:37.544Z,2.43
2023-04-09T12:43:07.539Z,3.30
2023-04-09T12:45:36.704Z,2.90
2023-04-09T12:48:05.378Z,2.77
2023-04-09T12:50:33.858Z,3.37
2023-04-09T12:53:02.245Z,3.60
2023-04-09T12:55:30.847Z,3.00
2023-04-09T12:58:02.876Z,2.80
2023-04-09T13:00:33.505Z,2.40
2023-04-09T13:03:01.941Z,2.63
2023-04-09T13:05:31.548Z,2.67
2023-04-09T13:08:00.016Z,2.40
2023-04-09T13:10:28.670Z,2.43
2023-04-09T13:12:57.147Z,2.73
2023-04-09T13:15:25.499Z,2.37
2023-04-09T13:17:55.287Z,2.10
2023-04-09T13:20:23.596Z,2.33
2023-04-09T13:22:52.400Z,2.50
2023-04-09T13:25:20.882Z,2.60
2023-04-09T13:27:49.181Z,2.33
2023-04-09T13:30:17.703Z,2.10
2023-04-09T13:32:46.053Z,2.17
2023-04-09T13:35:15.966Z,2.20
2023-04-09T13:37:44.312Z,2.70
2023-04-09T13:40:13.717Z,3.00
2023-04-09T13:42:42.025Z,3.10
2023-04-09T13:45:11.193Z,2.63
2023-04-09T13:47:39.536Z,2.57
2023-04-09T13:50:10.919Z,2.67
2023-04-09T13:52:40.772Z,2.67
2023-04-09T13:55:11.529Z,2.07
2023-04-09T13:57:39.944Z,1.87
2023-04-09T14:00:10.333Z,2.83
2023-04-09T14:02:38.724Z,2.20
2023-04-09T14:05:08.184Z,2.20
2023-04-09T14:07:36.662Z,2.00
2023-04-09T14:10:11.120Z,1.97
2023-04-09T14:12:39.442Z,1.80
2023-04-09T14:15:10.238Z,2.20
2023-04-09T14:17:38.734Z,1.90
2023-04-09T14:20:08.626Z,2.03
2023-04-09T14:22:36.909Z,2.40
2023-04-09T14:25:06.676Z,2.30
2023-04-09T14:27:36.502Z,2.20
2023-04-09T14:30:07.739Z,1.90
2023-04-09T14:32:36.254Z,2.27
2023-04-09T14:35:05.029Z,1.93
2023-04-09T14:37:33.511Z,2.40
2023-04-09T14:40:01.978Z,2.17
2023-04-09T14:42:30.391Z,2.23
2023-04-09T14:45:00.261Z,2.07
2023-04-09T14:47:28.703Z,2.00
2023-04-09T14:49:57.075Z,2.40
2023-04-09T14:52:25.882Z,2.07
2023-04-09T14:54:54.360Z,2.17
2023-04-09T14:57:22.855Z,2.33
2023-04-09T14:59:51.247Z,2.13
2023-04-09T15:02:21.816Z,2.10
2023-04-09T15:04:50.763Z,1.93
2023-04-09T15:07:25.058Z,2.50
2023-04-09T15:09:53.871Z,2.43
2023-04-09T15:12:22.488Z,2.20
2023-04-09T15:14:50.926Z,2.20
2023-04-09T15:17:20.719Z,2.03
2023-04-09T15:19:49.165Z,2.17
2023-04-09T15:22:17.627Z,2.30
2023-04-09T15:24:46.433Z,2.07
2023-04-09T15:27:14.915Z,1.80
2023-04-09T15:29:43.439Z,1.83
2023-04-09T15:32:12.364Z,2.03
2023-04-09T15:34:42.197Z,2.07
2023-04-09T15:37:10.723Z,1.90
2023-04-09T15:39:39.209Z,2.10
2023-04-09T15:42:10.266Z,2.03
2023-04-09T15:44:40.101Z,1.80
2023-04-09T15:47:09.242Z,1.80
2023-04-09T15:49:37.933Z,1.80
2023-04-09T15:52:07.862Z,1.90
2023-04-09T15:54:36.235Z,1.80
2023-04-09T15:57:05.202Z,2.27
2023-04-09T15:59:33.594Z,2.27
2023-04-09T16:02:02.204Z,1.90
2023-04-09T16:04:31.085Z,1.97
2023-04-09T16:06:59.676Z,1.73
2023-04-09T16:09:29.512Z,2.30
2023-04-09T16:11:57.934Z,1.90
2023-04-09T16:14:26.428Z,1.80
2023-04-09T16:16:54.875Z,1.97
2023-04-09T16:19:24.590Z,2.00
2023-04-09T16:21:53.426Z,2.10
2023-04-09T16:24:22.067Z,2.20
2023-04-09T16:26:52.067Z,1.93
2023-04-09T16:29:20.776Z,2.07
2023-04-09T16:31:49.336Z,1.73
2023-04-09T16:34:17.962Z,2.20
2023-04-09T16:36:46.578Z,1.90
2023-04-09T16:39:16.111Z,2.27
2023-04-09T16:41:45.443Z,2.00
2023-04-09T16:44:15.451Z,2.17
2023-04-09T16:46:44.182Z,1.77
2023-04-09T16:49:12.821Z,2.20
2023-04-09T16:51:41.316Z,2.47
2023-04-09T16:54:09.876Z,2.43
2023-04-09T16:56:38.429Z,2.10
2023-04-09T16:59:07.002Z,2.40
2023-04-09T17:01:37.116Z,2.03
2023-04-09T17:04:05.677Z,2.37
2023-04-09T17:06:34.297Z,2.43
2023-04-09T17:09:05.405Z,2.50
2023-04-09T17:11:34.064Z,2.23
2023-04-09T17:14:02.744Z,2.30
2023-04-09T17:16:31.564Z,2.40
2023-04-09T17:19:01.419Z,2.47
2023-04-09T17:21:30.166Z,2.33
2023-04-09T17:23:58.769Z,2.63
2023-04-09T17:26:27.385Z,2.60
2023-04-09T17:28:56.306Z,2.50
2023-04-09T17:31:25.107Z,2.43
2023-04-09T17:33:53.668Z,2.20
2023-04-09T17:36:23.698Z,2.30
2023-04-09T17:38:53.293Z,2.40
2023-04-09T17:41:21.773Z,2.30
2023-04-09T17:43:50.364Z,2.10
2023-04-09T17:46:19.545Z,2.90
2023-04-09T17:48:48.921Z,2.90
2023-04-09T17:51:20.108Z,2.83
2023-04-09T17:53:50.054Z,3.17
2023-04-09T17:56:19.162Z,3.13
2023-04-09T17:58:47.846Z,3.13
2023-04-09T18:01:16.603Z,3.63
2023-04-09T18:03:46.162Z,3.00
2023-04-09T18:06:16.649Z,3.23
2023-04-09T18:08:45.375Z,3.20
2023-04-09T18:11:15.592Z,3.03
2023-04-09T18:13:44.292Z,4.00
2023-04-09T18:16:13.266Z,3.70
2023-04-09T18:18:41.877Z,3.37
2023-04-09T18:21:10.600Z,2.80
2023-04-09T18:23:40.170Z,2.90
2023-04-09T18:26:08.902Z,2.80
2023-04-09T18:28:38.797Z,3.00
2023-04-09T18:31:07.634Z,2.60
2023-04-09T18:33:36.491Z,3.07
2023-04-09T18:36:05.752Z,2.90
2023-04-09T18:38:34.731Z,2.90
2023-04-09T18:41:03.505Z,3.37
2023-04-09T18:43:32.107Z,3.37
2023-04-09T18:46:02.010Z,3.20
2023-04-09T18:48:30.514Z,3.00
2023-04-09T18:50:59.136Z,2.97
2023-04-09T18:53:27.827Z,2.93
2023-04-09T18:55:56.514Z,2.93
2023-04-09T18:58:25.176Z,3.17
2023-04-09T19:00:53.942Z,2.90
2023-04-09T19:03:24.155Z,3.03
2023-04-09T19:05:53.293Z,3.33
2023-04-09T19:08:21.824Z,4.00
2023-04-09T19:10:50.943Z,4.23
2023-04-09T19:13:19.399Z,4.13
2023-04-09T19:15:47.861Z,4.00
2023-04-09T19:18:17.107Z,4.23
2023-04-09T19:20:47.036Z,3.47
2023-04-09T19:23:15.569Z,4.47
2023-04-09T19:25:44.250Z,4.30
2023-04-09T19:28:12.674Z,4.40
2023-04-09T19:30:41.061Z,5.00
2023-04-09T19:33:09.581Z,4.67
2023-04-09T19:35:40.703Z,4.17
2023-04-09T19:38:10.685Z,4.57
2023-04-09T19:40:39.500Z,4.63
2023-04-09T19:43:07.900Z,4.40
2023-04-09T19:45:37.961Z,4.43
2023-04-09T19:48:06.718Z,5.03
2023-04-09T19:50:37.873Z,4.40
2023-04-09T19:53:07.028Z,5.03
2023-04-09T19:55:37.230Z,4.97
2023-04-09T19:58:06.669Z,5.20
2023-04-09T20:00:35.440Z,5.17
2023-04-09T20:03:05.806Z,5.47
2023-04-09T20:05:34.492Z,5.00
2023-04-09T20:08:03.127Z,5.60
2023-04-09T20:10:31.643Z,5.87
2023-04-09T20:13:01.672Z,5.87
2023-04-09T20:15:30.175Z,5.60
2023-04-09T20:17:58.560Z,5.30
2023-04-09T20:20:27.259Z,6.00
2023-04-09T20:22:56.782Z,5.67
2023-04-09T20:25:25.914Z,6.20
2023-04-09T20:27:54.909Z,5.73
2023-04-09T20:30:24.706Z,5.63
2023-04-09T20:32:53.175Z,6.10
2023-04-09T20:35:21.681Z,5.40
2023-04-09T20:37:50.091Z,5.60
2023-04-09T20:40:18.586Z,5.80
2023-04-09T20:42:46.973Z,5.60
2023-04-09T20:45:15.787Z,6.70
2023-04-09T20:47:45.980Z,6.17
2023-04-09T20:50:14.670Z,6.77
2023-04-09T20:52:43.288Z,6.37
2023-04-09T20:55:11.669Z,6.27
2023-04-09T20:57:39.981Z,7.03
2023-04-09T21:00:10.342Z,6.30
2023-04-09T21:02:40.445Z,6.50
2023-04-09T21:05:22.014Z,6.53
2023-04-09T21:07:51.880Z,6.40
2023-04-09T21:10:20.291Z,6.10
2023-04-09T21:12:48.673Z,5.93
2023-04-09T21:15:17.400Z,6.00
2023-04-09T21:17:45.969Z,6.23
2023-04-09T21:20:16.760Z,6.43
2023-04-09T21:22:45.667Z,6.40
2023-04-09T21:25:15.349Z,6.73
2023-04-09T21:27:44.084Z,5.97
2023-04-09T21:30:19.174Z,7.37
2023-04-09T21:32:47.595Z,7.00
2023-04-09T21:35:17.540Z,6.30
2023-04-09T21:37:45.941Z,6.77
2023-04-09T21:40:16.670Z,6.73
2023-04-09T21:42:46.433Z,7.10
2023-04-09T21:45:14.850Z,7.00
2023-04-09T21:47:43.226Z,6.03
2023-04-09T21:50:12.779Z,5.90
2023-04-09T21:52:42.881Z,5.97
2023-04-09T21:55:11.956Z,5.97
2023-04-09T21:57:40.363Z,6.00
2023-04-09T22:00:11.113Z,6.43
2023-04-09T22:02:40.114Z,6.27
2023-04-09T22:05:09.515Z,6.20
2023-04-09T22:07:39.875Z,6.27
2023-04-09T22:10:11.300Z,6.03
2023-04-09T22:12:39.688Z,5.40
2023-04-09T22:15:09.367Z,5.73
2023-04-09T22:17:38.676Z,5.83
2023-04-09T22:20:09.605Z,6.23
2023-04-09T22:22:39.719Z,6.37
2023-04-09T22:25:11.966Z,6.33
2023-04-09T22:27:43.521Z,5.60
2023-04-09T22:30:12.589Z,6.27
2023-04-09T22:32:40.947Z,7.40
2023-04-09T22:35:11.360Z,6.67
2023-04-09T22:37:40.282Z,6.70
2023-04-09T22:40:14.703Z,7.97
2023-04-09T22:42:43.691Z,7.87
2023-04-09T22:45:12.627Z,7.83
2023-04-09T22:47:41.257Z,8.60
2023-04-09T22:50:11.207Z,7.30
2023-04-09T22:52:39.544Z,8.77
2023-04-09T22:55:11.057Z,7.87
2023-04-09T22:57:42.736Z,7.77
2023-04-09T23:00:11.874Z,8.13
2023-04-09T23:02:40.777Z,7.47
2023-04-09T23:05:11.636Z,8.27
2023-04-09T23:07:40.327Z,8.40
2023-04-09T23:10:14.259Z,8.50
2023-04-09T23:12:42.872Z,8.27
2023-04-09T23:15:12.597Z,7.93
2023-04-09T23:17:41.594Z,7.63
2023-04-09T23:20:11.568Z,8.03
2023-04-09T23:22:39.882Z,9.23
2023-04-09T23:25:10.878Z,8.67
2023-04-09T23:27:39.281Z,8.97
2023-04-09T23:30:09.467Z,8.73
2023-04-09T23:32:38.164Z,9.07
2023-04-09T23:35:07.496Z,7.80
2023-04-09T23:37:35.855Z,8.77
2023-04-09T23:40:04.594Z,7.77
2023-04-09T23:42:34.416Z,8.17
2023-04-09T23:45:04.457Z,8.97
2023-04-09T23:47:34.125Z,8.50
2023-04-09T23:50:04.980Z,8.03
2023-04-09T23:52:34.965Z,7.97
2023-04-09T23:55:03.653Z,8.30
2023-04-09T23:57:33.739Z,8.00
